sensor_id;sensor_type;location;lat;lon;timestamp;pressure;altitude;pressure_sealevel;temperature;humidity
54306;BME280;66145;45.188;5.712;2023-09-12T00:00:38;98995.50;;;24.41;57.07
54306;BME280;66145;45.188;5.712;2023-09-12T00:03:03;99005.09;;;24.47;57.24
54306;BME280;66145;45.188;5.712;2023-09-12T00:05:28;98997.81;;;24.39;57.37
54306;BME280;66145;45.188;5.712;2023-09-12T00:07:54;99000.31;;;24.44;57.61
54306;BME280;66145;45.188;5.712;2023-09-12T00:10:19;99006.28;;;24.46;57.53
54306;BME280;66145;45.188;5.712;2023-09-12T00:12:45;98979.56;;;24.34;57.60
54306;BME280;66145;45.188;5.712;2023-09-12T00:15:11;98986.69;;;24.35;57.60
54306;BME280;66145;45.188;5.712;2023-09-12T00:17:36;98990.75;;;24.41;57.60
54306;BME280;66145;45.188;5.712;2023-09-12T00:20:02;98994.34;;;24.42;57.70
54306;BME280;66145;45.188;5.712;2023-09-12T00:22:29;98984.78;;;24.39;57.86
54306;BME280;66145;45.188;5.712;2023-09-12T00:24:54;98988.72;;;24.38;58.13
54306;BME280;66145;45.188;5.712;2023-09-12T00:27:20;98980.34;;;24.35;58.04
54306;BME280;66145;45.188;5.712;2023-09-12T00:29:45;98974.47;;;24.36;58.05
54306;BME280;66145;45.188;5.712;2023-09-12T00:32:10;98961.19;;;24.26;58.17
54306;BME280;66145;45.188;5.712;2023-09-12T00:34:36;98963.94;;;24.26;58.19
54306;BME280;66145;45.188;5.712;2023-09-12T00:37:01;98958.41;;;24.26;58.16
54306;BME280;66145;45.188;5.712;2023-09-12T00:39:26;98975.19;;;24.33;58.30
54306;BME280;66145;45.188;5.712;2023-09-12T00:41:52;98967.97;;;24.28;58.24
54306;BME280;66145;45.188;5.712;2023-09-12T00:44:17;98967.59;;;24.30;57.97
54306;BME280;66145;45.188;5.712;2023-09-12T00:46:44;98964.06;;;24.29;58.16
54306;BME280;66145;45.188;5.712;2023-09-12T00:49:12;98967.22;;;24.32;58.45
54306;BME280;66145;45.188;5.712;2023-09-12T00:51:39;98970.81;;;24.32;58.38
54306;BME280;66145;45.188;5.712;2023-09-12T00:54:06;98933.66;;;24.13;58.04
54306;BME280;66145;45.188;5.712;2023-09-12T00:56:32;98937.31;;;24.18;58.63
54306;BME280;66145;45.188;5.712;2023-09-12T00:58:57;98946.56;;;24.25;58.23
54306;BME280;66145;45.188;5.712;2023-09-12T01:01:23;98932.69;;;24.22;58.57
54306;BME280;66145;45.188;5.712;2023-09-12T01:03:49;98943.63;;;24.34;58.50
54306;BME280;66145;45.188;5.712;2023-09-12T01:06:17;98939.97;;;24.30;58.62
54306;BME280;66145;45.188;5.712;2023-09-12T01:08:45;98945.13;;;24.32;58.54
54306;BME280;66145;45.188;5.712;2023-09-12T01:11:11;98934.44;;;24.30;58.65
54306;BME280;66145;45.188;5.712;2023-09-12T01:13:37;98945.56;;;24.34;58.55
54306;BME280;66145;45.188;5.712;2023-09-12T01:16:02;98890.03;;;24.03;58.56
54306;BME280;66145;45.188;5.712;2023-09-12T01:18:27;98918.06;;;24.21;58.67
54306;BME280;66145;45.188;5.712;2023-09-12T01:29:50;98918.22;;;24.28;59.04
54306;BME280;66145;45.188;5.712;2023-09-12T01:32:18;98909.03;;;24.24;59.55
54306;BME280;66145;45.188;5.712;2023-09-12T01:34:44;98894.28;;;24.17;59.89
54306;BME280;66145;45.188;5.712;2023-09-12T01:37:10;98904.69;;;24.23;59.14
54306;BME280;66145;45.188;5.712;2023-09-12T01:39:35;98911.09;;;24.27;59.65
54306;BME280;66145;45.188;5.712;2023-09-12T01:42:01;98924.53;;;24.29;58.95
54306;BME280;66145;45.188;5.712;2023-09-12T01:44:28;98928.13;;;24.29;59.35
54306;BME280;66145;45.188;5.712;2023-09-12T01:46:55;98920.53;;;24.26;60.06
54306;BME280;66145;45.188;5.712;2023-09-12T01:49:24;98927.31;;;24.29;59.96
54306;BME280;66145;45.188;5.712;2023-09-12T01:51:51;98923.38;;;24.30;59.58
54306;BME280;66145;45.188;5.712;2023-09-12T01:54:19;98913.34;;;24.22;59.51
54306;BME280;66145;45.188;5.712;2023-09-12T01:56:45;98909.75;;;24.21;60.25
54306;BME280;66145;45.188;5.712;2023-09-12T01:59:11;98902.19;;;24.18;59.65
54306;BME280;66145;45.188;5.712;2023-09-12T02:01:36;98911.88;;;24.28;59.38
54306;BME280;66145;45.188;5.712;2023-09-12T02:04:02;98900.25;;;24.19;59.45
54306;BME280;66145;45.188;5.712;2023-09-12T02:06:27;98908.97;;;24.21;59.37
54306;BME280;66145;45.188;5.712;2023-09-12T02:08:52;98937.56;;;24.28;59.20
54306;BME280;66145;45.188;5.712;2023-09-12T02:11:18;98917.25;;;24.21;59.41
54306;BME280;66145;45.188;5.712;2023-09-12T02:13:43;98919.38;;;24.27;59.59
54306;BME280;66145;45.188;5.712;2023-09-12T02:16:08;98904.59;;;24.20;59.30
54306;BME280;66145;45.188;5.712;2023-09-12T02:18:33;98903.72;;;24.15;59.26
54306;BME280;66145;45.188;5.712;2023-09-12T02:20:59;98932.03;;;24.28;59.42
54306;BME280;66145;45.188;5.712;2023-09-12T02:23:24;98918.56;;;24.27;59.13
54306;BME280;66145;45.188;5.712;2023-09-12T02:25:50;98918.22;;;24.28;59.51
54306;BME280;66145;45.188;5.712;2023-09-12T02:28:15;98919.84;;;24.29;59.33
54306;BME280;66145;45.188;5.712;2023-09-12T02:30:41;98914.13;;;24.22;59.39
54306;BME280;66145;45.188;5.712;2023-09-12T02:33:06;98913.34;;;24.22;59.44
54306;BME280;66145;45.188;5.712;2023-09-12T02:35:32;98920.19;;;24.28;59.33
54306;BME280;66145;45.188;5.712;2023-09-12T02:37:57;98900.59;;;24.17;59.44
54306;BME280;66145;45.188;5.712;2023-09-12T02:40:23;98909.38;;;24.23;59.42
54306;BME280;66145;45.188;5.712;2023-09-12T02:42:48;98908.97;;;24.21;59.54
54306;BME280;66145;45.188;5.712;2023-09-12T02:45:13;98912.97;;;24.23;59.64
54306;BME280;66145;45.188;5.712;2023-09-12T02:47:39;98918.50;;;24.23;59.53
54306;BME280;66145;45.188;5.712;2023-09-12T02:50:04;98919.72;;;24.26;59.26
54306;BME280;66145;45.188;5.712;2023-09-12T02:52:30;98920.09;;;24.24;60.00
54306;BME280;66145;45.188;5.712;2023-09-12T02:54:55;98925.25;;;24.26;59.87
54306;BME280;66145;45.188;5.712;2023-09-12T02:57:20;98911.63;;;24.17;59.86
54306;BME280;66145;45.188;5.712;2023-09-12T02:59:46;98906.22;;;24.21;59.88
54306;BME280;66145;45.188;5.712;2023-09-12T03:02:12;98920.53;;;24.26;60.33
54306;BME280;66145;45.188;5.712;2023-09-12T03:04:37;98906.09;;;24.17;60.14
54306;BME280;66145;45.188;5.712;2023-09-12T03:07:03;98915.28;;;24.21;60.16
54306;BME280;66145;45.188;5.712;2023-09-12T03:09:28;98926.84;;;24.27;59.96
54306;BME280;66145;45.188;5.712;2023-09-12T03:11:53;98912.53;;;24.21;60.55
54306;BME280;66145;45.188;5.712;2023-09-12T03:14:19;98890.47;;;24.05;60.70
54306;BME280;66145;45.188;5.712;2023-09-12T03:16:44;98925.69;;;24.28;60.60
54306;BME280;66145;45.188;5.712;2023-09-12T03:19:09;98916.53;;;24.24;60.26
54306;BME280;66145;45.188;5.712;2023-09-12T03:21:35;98907.56;;;24.11;59.87
54306;BME280;66145;45.188;5.712;2023-09-12T03:24:00;98910.41;;;24.14;60.39
54306;BME280;66145;45.188;5.712;2023-09-12T03:26:25;98926.78;;;24.23;60.58
54306;BME280;66145;45.188;5.712;2023-09-12T03:28:51;98919.59;;;24.19;59.91
54306;BME280;66145;45.188;5.712;2023-09-12T03:31:18;98920.81;;;24.21;60.23
54306;BME280;66145;45.188;5.712;2023-09-12T03:33:44;98913.16;;;24.14;60.01
54306;BME280;66145;45.188;5.712;2023-09-12T03:36:15;98921.63;;;24.22;59.90
54306;BME280;66145;45.188;5.712;2023-09-12T03:38:40;98894.38;;;24.04;59.66
54306;BME280;66145;45.188;5.712;2023-09-12T03:41:06;98923.66;;;24.25;59.97
54306;BME280;66145;45.188;5.712;2023-09-12T03:43:33;98917.78;;;24.26;60.05
54306;BME280;66145;45.188;5.712;2023-09-12T03:45:58;98902.91;;;24.15;60.20
54306;BME280;66145;45.188;5.712;2023-09-12T03:48:24;98921.72;;;24.25;60.42
54306;BME280;66145;45.188;5.712;2023-09-12T03:50:49;98924.91;;;24.27;59.83
54306;BME280;66145;45.188;5.712;2023-09-12T03:53:15;98920.53;;;24.26;59.95
54306;BME280;66145;45.188;5.712;2023-09-12T03:55:41;98929.63;;;24.27;60.46
54306;BME280;66145;45.188;5.712;2023-09-12T03:58:06;98915.28;;;24.21;60.07
54306;BME280;66145;45.188;5.712;2023-09-12T04:00:32;98903.72;;;24.15;60.62
54306;BME280;66145;45.188;5.712;2023-09-12T04:02:57;98918.22;;;24.28;60.67
54306;BME280;66145;45.188;5.712;2023-09-12T04:05:22;98907.97;;;24.29;60.35
54306;BME280;66145;45.188;5.712;2023-09-12T04:07:48;98904.41;;;24.28;60.74
54306;BME280;66145;45.188;5.712;2023-09-12T04:10:13;98908.34;;;24.27;60.36
54306;BME280;66145;45.188;5.712;2023-09-12T04:12:38;98909.19;;;24.32;60.40
54306;BME280;66145;45.188;5.712;2023-09-12T04:15:06;98900.75;;;24.24;60.10
54306;BME280;66145;45.188;5.712;2023-09-12T04:17:31;98913.03;;;24.27;60.12
54306;BME280;66145;45.188;5.712;2023-09-12T04:19:57;98895.44;;;24.15;60.36
54306;BME280;66145;45.188;5.712;2023-09-12T04:22:22;98914.13;;;24.22;60.28
54306;BME280;66145;45.188;5.712;2023-09-12T04:24:47;98913.25;;;24.18;60.29
54306;BME280;66145;45.188;5.712;2023-09-12T04:27:13;98911.75;;;24.21;60.19
54306;BME280;66145;45.188;5.712;2023-09-12T04:29:38;98926.34;;;24.21;59.13
54306;BME280;66145;45.188;5.712;2023-09-12T04:32:05;98922.25;;;24.15;59.24
54306;BME280;66145;45.188;5.712;2023-09-12T04:34:30;98929.09;;;24.21;59.34
54306;BME280;66145;45.188;5.712;2023-09-12T04:36:56;98922.03;;;24.24;59.08
54306;BME280;66145;45.188;5.712;2023-09-12T04:39:21;98935.59;;;24.29;58.97
54306;BME280;66145;45.188;5.712;2023-09-12T04:41:47;98916.91;;;24.22;58.92
54306;BME280;66145;45.188;5.712;2023-09-12T04:44:12;98933.22;;;24.27;58.94
54306;BME280;66145;45.188;5.712;2023-09-12T04:46:37;98921.19;;;24.20;58.63
54306;BME280;66145;45.188;5.712;2023-09-12T04:49:03;98939.88;;;24.26;58.69
54306;BME280;66145;45.188;5.712;2023-09-12T04:51:29;98930.78;;;24.26;58.64
54306;BME280;66145;45.188;5.712;2023-09-12T04:53:54;98925.56;;;24.21;58.68
54306;BME280;66145;45.188;5.712;2023-09-12T04:56:20;98941.50;;;24.27;58.52
54306;BME280;66145;45.188;5.712;2023-09-12T04:58:45;98939.44;;;24.24;58.62
54306;BME280;66145;45.188;5.712;2023-09-12T05:01:11;98948.53;;;24.25;58.17
54306;BME280;66145;45.188;5.712;2023-09-12T05:03:36;98932.88;;;24.13;58.19
54306;BME280;66145;45.188;5.712;2023-09-12T05:06:02;98959.25;;;24.26;58.30
54306;BME280;66145;45.188;5.712;2023-09-12T05:08:29;98964.38;;;24.28;58.32
54306;BME280;66145;45.188;5.712;2023-09-12T05:10:54;98960.03;;;24.27;58.08
54306;BME280;66145;45.188;5.712;2023-09-12T05:13:19;98945.94;;;24.16;58.32
54306;BME280;66145;45.188;5.712;2023-09-12T05:15:44;98966.72;;;24.26;58.24
54306;BME280;66145;45.188;5.712;2023-09-12T05:18:10;98965.28;;;24.16;58.58
54306;BME280;66145;45.188;5.712;2023-09-12T05:20:36;98971.19;;;24.14;58.19
54306;BME280;66145;45.188;5.712;2023-09-12T05:23:01;98963.16;;;24.09;58.34
54306;BME280;66145;45.188;5.712;2023-09-12T05:25:26;98974.84;;;24.19;58.37
54306;BME280;66145;45.188;5.712;2023-09-12T05:27:52;98978.06;;;24.21;58.16
54306;BME280;66145;45.188;5.712;2023-09-12T05:30:18;98970.81;;;24.16;58.63
54306;BME280;66145;45.188;5.712;2023-09-12T05:32:43;98983.59;;;24.21;58.45
54306;BME280;66145;45.188;5.712;2023-09-12T05:35:08;98960.41;;;24.09;58.23
54306;BME280;66145;45.188;5.712;2023-09-12T05:37:34;98979.09;;;24.16;58.11
54306;BME280;66145;45.188;5.712;2023-09-12T05:39:59;98967.91;;;24.09;58.33
54306;BME280;66145;45.188;5.712;2023-09-12T05:42:24;98981.53;;;24.18;58.10
54306;BME280;66145;45.188;5.712;2023-09-12T05:44:50;98976.72;;;24.14;58.22
54306;BME280;66145;45.188;5.712;2023-09-12T05:47:19;98967.44;;;24.07;58.25
54306;BME280;66145;45.188;5.712;2023-09-12T05:49:45;98973.25;;;24.18;58.40
54306;BME280;66145;45.188;5.712;2023-09-12T05:52:10;98967.72;;;24.18;58.46
54306;BME280;66145;45.188;5.712;2023-09-12T05:54:36;98981.53;;;24.18;58.15
54306;BME280;66145;45.188;5.712;2023-09-12T05:57:02;98988.03;;;24.25;58.13
54306;BME280;66145;45.188;5.712;2023-09-12T05:59:28;98971.44;;;24.09;57.68
54306;BME280;66145;45.188;5.712;2023-09-12T06:01:53;98995.06;;;24.07;57.78
54306;BME280;66145;45.188;5.712;2023-09-12T06:04:19;98986.47;;;23.96;57.89
54306;BME280;66145;45.188;5.712;2023-09-12T06:06:45;98997.38;;;24.05;57.14
54306;BME280;66145;45.188;5.712;2023-09-12T06:09:11;98992.84;;;23.96;56.32
54306;BME280;66145;45.188;5.712;2023-09-12T06:11:36;98991.03;;;23.88;55.48
54306;BME280;66145;45.188;5.712;2023-09-12T06:14:01;98997.25;;;23.85;55.55
54306;BME280;66145;45.188;5.712;2023-09-12T06:16:27;99000.75;;;23.82;55.36
54306;BME280;66145;45.188;5.712;2023-09-12T06:18:52;98988.34;;;23.76;55.13
54306;BME280;66145;45.188;5.712;2023-09-12T06:21:19;98997.41;;;23.76;55.18
54306;BME280;66145;45.188;5.712;2023-09-12T06:23:46;98978.63;;;23.66;54.25
54306;BME280;66145;45.188;5.712;2023-09-12T06:26:12;99001.91;;;23.81;55.20
54306;BME280;66145;45.188;5.712;2023-09-12T06:28:37;98979.16;;;23.72;54.82
54306;BME280;66145;45.188;5.712;2023-09-12T06:31:02;99006.06;;;23.91;54.85
54306;BME280;66145;45.188;5.712;2023-09-12T06:33:28;98995.84;;;23.91;53.75
54306;BME280;66145;45.188;5.712;2023-09-12T06:35:53;99007.91;;;23.99;54.26
54306;BME280;66145;45.188;5.712;2023-09-12T06:38:21;99020.72;;;24.07;55.34
54306;BME280;66145;45.188;5.712;2023-09-12T06:40:46;99022.34;;;24.08;54.02
54306;BME280;66145;45.188;5.712;2023-09-12T06:43:12;99014.88;;;24.09;52.61
54306;BME280;66145;45.188;5.712;2023-09-12T06:45:38;99009.59;;;24.04;53.49
54306;BME280;66145;45.188;5.712;2023-09-12T06:48:04;99016.09;;;24.11;52.93
54306;BME280;66145;45.188;5.712;2023-09-12T06:50:29;99005.75;;;24.08;52.41
54306;BME280;66145;45.188;5.712;2023-09-12T06:52:55;99009.50;;;24.00;54.51
54306;BME280;66145;45.188;5.712;2023-09-12T06:55:20;99023.69;;;23.98;55.06
54306;BME280;66145;45.188;5.712;2023-09-12T06:57:46;99027.47;;;23.94;55.11
54306;BME280;66145;45.188;5.712;2023-09-12T07:00:12;98999.94;;;23.81;53.93
54306;BME280;66145;45.188;5.712;2023-09-12T07:02:38;99023.09;;;23.93;54.80
54306;BME280;66145;45.188;5.712;2023-09-12T07:05:04;99019.81;;;23.87;54.09
54306;BME280;66145;45.188;5.712;2023-09-12T07:07:30;99027.84;;;23.92;55.29
54306;BME280;66145;45.188;5.712;2023-09-12T07:09:55;99005.91;;;23.83;54.50
54306;BME280;66145;45.188;5.712;2023-09-12T07:12:21;99021.94;;;23.94;53.22
54306;BME280;66145;45.188;5.712;2023-09-12T07:14:46;99020.19;;;24.02;52.80
54306;BME280;66145;45.188;5.712;2023-09-12T07:17:12;99010.22;;;23.97;53.77
54306;BME280;66145;45.188;5.712;2023-09-12T07:19:37;99004.03;;;23.88;53.13
54306;BME280;66145;45.188;5.712;2023-09-12T07:22:03;99027.69;;;24.01;53.86
54306;BME280;66145;45.188;5.712;2023-09-12T07:24:28;99019.34;;;23.85;54.90
54306;BME280;66145;45.188;5.712;2023-09-12T07:26:54;99003.69;;;23.73;54.63
54306;BME280;66145;45.188;5.712;2023-09-12T07:29:19;99019.63;;;23.80;55.00
54306;BME280;66145;45.188;5.712;2023-09-12T07:31:44;99019.97;;;23.78;54.87
54306;BME280;66145;45.188;5.712;2023-09-12T07:34:10;99027.53;;;23.81;55.45
54306;BME280;66145;45.188;5.712;2023-09-12T07:36:37;99037.81;;;23.81;55.66
54306;BME280;66145;45.188;5.712;2023-09-12T07:39:03;99040.56;;;23.81;55.45
54306;BME280;66145;45.188;5.712;2023-09-12T07:41:29;99038.06;;;23.76;55.64
54306;BME280;66145;45.188;5.712;2023-09-12T07:43:55;99043.66;;;23.79;55.48
54306;BME280;66145;45.188;5.712;2023-09-12T07:46:20;99053.56;;;23.80;55.82
54306;BME280;66145;45.188;5.712;2023-09-12T07:48:46;99047.94;;;23.77;55.26
54306;BME280;66145;45.188;5.712;2023-09-12T07:51:15;99004.69;;;23.52;54.31
54306;BME280;66145;45.188;5.712;2023-09-12T07:53:42;99040.56;;;23.81;54.75
54306;BME280;66145;45.188;5.712;2023-09-12T07:56:08;99045.19;;;23.77;54.34
54306;BME280;66145;45.188;5.712;2023-09-12T07:58:35;99052.75;;;23.80;55.46
54306;BME280;66145;45.188;5.712;2023-09-12T08:01:05;99059.06;;;23.80;54.94
54306;BME280;66145;45.188;5.712;2023-09-12T08:03:30;99050.34;;;23.78;54.46
54306;BME280;66145;45.188;5.712;2023-09-12T08:05:56;99059.44;;;23.79;54.70
54306;BME280;66145;45.188;5.712;2023-09-12T08:08:22;99055.06;;;23.78;54.99
54306;BME280;66145;45.188;5.712;2023-09-12T08:10:48;99040.81;;;23.76;55.10
54306;BME280;66145;45.188;5.712;2023-09-12T08:13:14;99046.69;;;23.74;54.98
54306;BME280;66145;45.188;5.712;2023-09-12T08:15:39;99019.84;;;23.59;55.63
54306;BME280;66145;45.188;5.712;2023-09-12T08:18:04;99036.81;;;23.73;55.03
54306;BME280;66145;45.188;5.712;2023-09-12T08:20:30;99036.00;;;23.73;54.60
54306;BME280;66145;45.188;5.712;2023-09-12T08:22:55;99041.88;;;23.71;55.76
54306;BME280;66145;45.188;5.712;2023-09-12T08:25:21;99043.81;;;23.70;55.67
54306;BME280;66145;45.188;5.712;2023-09-12T08:27:46;99034.75;;;23.70;55.45
54306;BME280;66145;45.188;5.712;2023-09-12T08:30:12;99034.28;;;23.68;55.49
54306;BME280;66145;45.188;5.712;2023-09-12T08:32:39;99019.03;;;23.58;55.38
54306;BME280;66145;45.188;5.712;2023-09-12T08:35:06;99035.91;;;23.69;55.16
54306;BME280;66145;45.188;5.712;2023-09-12T08:37:32;99039.81;;;23.68;55.16
54306;BME280;66145;45.188;5.712;2023-09-12T08:39:57;99033.38;;;23.64;55.30
54306;BME280;66145;45.188;5.712;2023-09-12T08:42:26;99036.25;;;23.67;55.28
54306;BME280;66145;45.188;5.712;2023-09-12T08:44:53;99034.22;;;23.64;55.51
54306;BME280;66145;45.188;5.712;2023-09-12T08:47:19;99017.06;;;23.59;55.13
54306;BME280;66145;45.188;5.712;2023-09-12T08:49:47;99021.19;;;23.65;54.96
54306;BME280;66145;45.188;5.712;2023-09-12T08:52:13;99019.13;;;23.62;55.48
54306;BME280;66145;45.188;5.712;2023-09-12T08:54:38;98997.94;;;23.50;55.52
54306;BME280;66145;45.188;5.712;2023-09-12T08:57:05;99008.38;;;23.57;55.31
54306;BME280;66145;45.188;5.712;2023-09-12T08:59:33;99010.31;;;23.56;55.13
54306;BME280;66145;45.188;5.712;2023-09-12T09:02:00;99010.66;;;23.54;55.16
54306;BME280;66145;45.188;5.712;2023-09-12T09:04:28;99017.81;;;23.56;55.24
54306;BME280;66145;45.188;5.712;2023-09-12T09:06:57;99021.56;;;23.63;55.18
54306;BME280;66145;45.188;5.712;2023-09-12T09:09:23;99018.69;;;23.60;55.22
54306;BME280;66145;45.188;5.712;2023-09-12T09:11:51;99005.25;;;23.58;55.14
54306;BME280;66145;45.188;5.712;2023-09-12T09:14:16;99001.56;;;23.54;55.13
54306;BME280;66145;45.188;5.712;2023-09-12T09:16:42;99009.84;;;23.54;55.18
54306;BME280;66145;45.188;5.712;2023-09-12T09:19:07;99019.94;;;23.62;55.19
54306;BME280;66145;45.188;5.712;2023-09-12T09:21:35;99006.75;;;23.56;55.32
54306;BME280;66145;45.188;5.712;2023-09-12T09:24:13;99001.13;;;23.52;55.33
54306;BME280;66145;45.188;5.712;2023-09-12T09:26:46;99017.53;;;23.61;55.31
54306;BME280;66145;45.188;5.712;2023-09-12T09:29:19;98991.06;;;23.44;55.52
54306;BME280;66145;45.188;5.712;2023-09-12T09:31:47;99009.06;;;23.53;55.36
54306;BME280;66145;45.188;5.712;2023-09-12T09:34:17;99025.81;;;23.61;55.42
54306;BME280;66145;45.188;5.712;2023-09-12T09:36:47;99019.84;;;23.59;55.21
54306;BME280;66145;45.188;5.712;2023-09-12T09:39:13;99022.16;;;23.57;55.56
54306;BME280;66145;45.188;5.712;2023-09-12T09:41:39;99022.59;;;23.59;55.54
54306;BME280;66145;45.188;5.712;2023-09-12T09:44:09;99011.81;;;23.53;55.47
54306;BME280;66145;45.188;5.712;2023-09-12T09:46:35;99013.97;;;23.60;55.54
54306;BME280;66145;45.188;5.712;2023-09-12T09:49:02;99012.28;;;23.56;55.63
54306;BME280;66145;45.188;5.712;2023-09-12T09:51:29;99016.41;;;23.78;56.26
54306;BME280;66145;45.188;5.712;2023-09-12T09:53:55;98988.88;;;23.81;55.07
54306;BME280;66145;45.188;5.712;2023-09-12T09:56:24;99010.81;;;23.90;55.19
54306;BME280;66145;45.188;5.712;2023-09-12T09:58:54;99003.31;;;23.91;55.18
54306;BME280;66145;45.188;5.712;2023-09-12T10:01:28;99004.50;;;23.90;55.07
54306;BME280;66145;45.188;5.712;2023-09-12T10:03:58;99006.06;;;23.91;54.85
54306;BME280;66145;45.188;5.712;2023-09-12T10:06:23;99003.31;;;23.91;55.03
54306;BME280;66145;45.188;5.712;2023-09-12T10:08:53;99001.44;;;23.95;55.04
54306;BME280;66145;45.188;5.712;2023-09-12T10:11:23;99000.66;;;23.94;54.72
54306;BME280;66145;45.188;5.712;2023-09-12T10:13:56;99008.59;;;23.96;54.93
54306;BME280;66145;45.188;5.712;2023-09-12T10:16:24;98992.19;;;23.87;55.33
54306;BME280;66145;45.188;5.712;2023-09-12T10:19:38;99008.66;;;23.83;55.31
54306;BME280;66145;45.188;5.712;2023-09-12T10:24:49;99012.13;;;23.80;55.87
54306;BME280;66145;45.188;5.712;2023-09-12T10:27:18;98996.47;;;23.84;55.78
54306;BME280;66145;45.188;5.712;2023-09-12T10:29:43;99001.81;;;23.93;55.64
54306;BME280;66145;45.188;5.712;2023-09-12T10:32:14;99002.84;;;24.01;55.52
54306;BME280;66145;45.188;5.712;2023-09-12T10:34:39;99000.84;;;24.02;55.53
54306;BME280;66145;45.188;5.712;2023-09-12T10:37:12;98988.56;;;23.99;55.14
54306;BME280;66145;45.188;5.712;2023-09-12T10:39:40;98997.13;;;24.10;55.51
54306;BME280;66145;45.188;5.712;2023-09-12T10:42:08;99000.34;;;24.12;55.36
54306;BME280;66145;45.188;5.712;2023-09-12T10:44:33;98982.41;;;24.06;55.64
54306;BME280;66145;45.188;5.712;2023-09-12T10:47:00;99001.22;;;24.16;55.32
54306;BME280;66145;45.188;5.712;2023-09-12T10:49:25;98983.66;;;24.08;55.14
54306;BME280;66145;45.188;5.712;2023-09-12T10:51:51;98989.28;;;24.12;54.98
54306;BME280;66145;45.188;5.712;2023-09-12T10:54:25;98988.91;;;24.13;54.97
54306;BME280;66145;45.188;5.712;2023-09-12T10:57:06;98989.38;;;24.15;55.14
54306;BME280;66145;45.188;5.712;2023-09-12T10:59:32;98972.25;;;24.10;55.26
54306;BME280;66145;45.188;5.712;2023-09-12T11:02:29;98991.69;;;24.13;55.32
54306;BME280;66145;45.188;5.712;2023-09-12T11:04:56;98983.91;;;24.19;55.26
54306;BME280;66145;45.188;5.712;2023-09-12T11:12:41;98978.53;;;24.42;55.14
54306;BME280;66145;45.188;5.712;2023-09-12T11:15:08;98956.28;;;24.35;55.19
54306;BME280;66145;45.188;5.712;2023-09-12T11:17:39;98952.34;;;24.36;55.13
54306;BME280;66145;45.188;5.712;2023-09-12T11:20:05;98964.38;;;24.44;54.83
54306;BME280;66145;45.188;5.712;2023-09-12T11:22:36;98953.78;;;24.30;55.16
54306;BME280;66145;45.188;5.712;2023-09-12T11:25:03;98973.66;;;24.36;55.25
54306;BME280;66145;45.188;5.712;2023-09-12T11:28:02;98966.88;;;24.33;55.07
54306;BME280;66145;45.188;5.712;2023-09-12T11:30:31;98958.88;;;24.28;55.34
54306;BME280;66145;45.188;5.712;2023-09-12T11:32:57;98967.22;;;24.32;55.22
54306;BME280;66145;45.188;5.712;2023-09-12T11:35:24;98969.28;;;24.35;55.14
54306;BME280;66145;45.188;5.712;2023-09-12T11:37:52;98956.63;;;24.34;54.95
54306;BME280;66145;45.188;5.712;2023-09-12T11:40:23;98938.63;;;24.24;54.77
54306;BME280;66145;45.188;5.712;2023-09-12T11:42:49;98926.25;;;24.18;54.81
54306;BME280;66145;45.188;5.712;2023-09-12T11:45:18;98944.72;;;24.29;54.85
54306;BME280;66145;45.188;5.712;2023-09-12T11:47:44;98945.13;;;24.32;54.84
54306;BME280;66145;45.188;5.712;2023-09-12T11:50:32;98941.19;;;24.33;55.07
54306;BME280;66145;45.188;5.712;2023-09-12T11:53:02;98924.41;;;24.22;54.64
54306;BME280;66145;45.188;5.712;2023-09-12T11:55:31;98936.84;;;24.32;54.78
54306;BME280;66145;45.188;5.712;2023-09-12T11:57:57;98915.28;;;24.21;55.10
54306;BME280;66145;45.188;5.712;2023-09-12T12:00:22;98937.44;;;24.41;54.84
54306;BME280;66145;45.188;5.712;2023-09-12T12:02:49;98919.53;;;24.35;54.82
54306;BME280;66145;45.188;5.712;2023-09-12T12:05:15;98933.16;;;24.43;54.87
54306;BME280;66145;45.188;5.712;2023-09-12T12:07:40;98924.53;;;24.45;54.53
54306;BME280;66145;45.188;5.712;2023-09-12T12:10:08;98920.94;;;24.44;54.34
54306;BME280;66145;45.188;5.712;2023-09-12T12:12:33;98922.09;;;24.43;54.79
54306;BME280;66145;45.188;5.712;2023-09-12T12:14:58;98918.81;;;24.38;54.97
54306;BME280;66145;45.188;5.712;2023-09-12T12:17:24;98914.91;;;24.39;54.68
54306;BME280;66145;45.188;5.712;2023-09-12T12:19:49;98906.44;;;24.32;54.44
54306;BME280;66145;45.188;5.712;2023-09-12T12:22:15;98914.00;;;24.35;54.59
54306;BME280;66145;45.188;5.712;2023-09-12T12:24:45;98889.94;;;24.35;54.65
54306;BME280;66145;45.188;5.712;2023-09-12T12:27:10;98900.19;;;24.35;54.46
54306;BME280;66145;45.188;5.712;2023-09-12T12:29:37;98898.25;;;24.35;54.47
54306;BME280;66145;45.188;5.712;2023-09-12T12:32:05;98884.69;;;24.30;54.49
54306;BME280;66145;45.188;5.712;2023-09-12T12:34:30;98890.28;;;24.34;54.49
54306;BME280;66145;45.188;5.712;2023-09-12T12:36:56;98901.88;;;24.39;54.37
54306;BME280;66145;45.188;5.712;2023-09-12T12:39:22;98900.69;;;24.40;54.51
54306;BME280;66145;45.188;5.712;2023-09-12T12:41:48;98902.81;;;24.47;54.26
54306;BME280;66145;45.188;5.712;2023-09-12T12:44:14;98876.34;;;24.26;54.60
54306;BME280;66145;45.188;5.712;2023-09-12T12:46:51;98897.22;;;24.43;54.38
54306;BME280;66145;45.188;5.712;2023-09-12T12:49:17;98888.84;;;24.40;54.42
54306;BME280;66145;45.188;5.712;2023-09-12T12:51:44;98889.13;;;24.35;54.66
54306;BME280;66145;45.188;5.712;2023-09-12T12:54:10;98887.19;;;24.35;54.67
54306;BME280;66145;45.188;5.712;2023-09-12T12:56:37;98871.59;;;24.27;54.61
54306;BME280;66145;45.188;5.712;2023-09-12T12:59:05;98851.28;;;24.19;54.21
54306;BME280;66145;45.188;5.712;2023-09-12T13:01:34;98880.31;;;24.29;54.16
54306;BME280;66145;45.188;5.712;2023-09-12T13:03:59;98857.53;;;24.16;54.72
54306;BME280;66145;45.188;5.712;2023-09-12T13:06:25;98878.22;;;24.22;54.41
54306;BME280;66145;45.188;5.712;2023-09-12T13:08:53;98881.94;;;24.30;54.52
54306;BME280;66145;45.188;5.712;2023-09-12T13:11:21;98864.56;;;24.29;54.88
54306;BME280;66145;45.188;5.712;2023-09-12T13:13:49;98843.50;;;24.25;54.75